createdAt,value
2022-12-24T00:00:05.491Z,102493.41
2022-12-24T00:05:12.089Z,102519.94
2022-12-24T00:10:16.188Z,102496.97
2022-12-24T00:15:20.826Z,102508.09
2022-12-24T00:20:26.279Z,102515.94
2022-12-24T00:25:31.010Z,102618.56
2022-12-24T00:30:36.616Z,102578.50
2022-12-24T00:35:43.247Z,102590.63
2022-12-24T00:40:48.427Z,102539.44
2022-12-24T00:45:53.159Z,102540.34
2022-12-24T00:50:57.892Z,102547.31
2022-12-24T00:56:02.704Z,102539.75
2022-12-24T01:01:08.271Z,102525.28
2022-12-24T01:06:16.818Z,102545.03
2022-12-24T01:11:21.867Z,102552.78
2022-12-24T01:16:27.659Z,102601.66
2022-12-24T01:21:33.066Z,102564.88
2022-12-24T01:26:37.766Z,102553.78
2022-12-24T01:31:43.556Z,102562.41
2022-12-24T01:36:48.284Z,102554.72
2022-12-24T01:42:11.409Z,102553.88
2022-12-24T01:47:29.362Z,102535.84
2022-12-24T01:52:38.800Z,102521.28
2022-12-24T01:57:54.624Z,102522.97
2022-12-24T02:02:59.495Z,102520.34
2022-12-24T02:08:05.821Z,102513.41
2022-12-24T02:13:12.088Z,102551.97
2022-12-24T02:18:22.724Z,102496.81
2022-12-24T02:23:38.834Z,102490.66
2022-12-24T02:29:27.374Z,102475.03
2022-12-24T02:34:49.522Z,102526.53
2022-12-24T02:40:16.070Z,102473.03
2022-12-24T02:45:35.971Z,102468.56
2022-12-24T02:50:40.788Z,102452.09
2022-12-24T02:56:28.494Z,102445.06
2022-12-24T03:01:33.335Z,102435.47
2022-12-24T03:07:08.555Z,102427.56
2022-12-24T03:12:18.394Z,102429.19
2022-12-24T03:17:23.576Z,102420.41
2022-12-24T03:22:29.371Z,102407.38
2022-12-24T03:27:36.449Z,102396.91
2022-12-24T03:32:41.901Z,102399.44
2022-12-24T03:37:47.049Z,102427.78
2022-12-24T03:42:52.194Z,102372.56
2022-12-24T03:47:58.464Z,102368.97
2022-12-24T03:53:03.467Z,102362.75
2022-12-24T03:58:08.823Z,102353.13
2022-12-24T04:03:14.031Z,102340.84
2022-12-24T04:08:23.648Z,102337.19
2022-12-24T04:13:28.842Z,102350.78
2022-12-24T04:18:35.386Z,102283.16
2022-12-24T04:23:43.186Z,102325.22
2022-12-24T04:28:49.473Z,102275.72
2022-12-24T04:33:55.572Z,102292.75
2022-12-24T04:39:01.101Z,102272.63
2022-12-24T04:44:05.730Z,102275.00
2022-12-24T04:49:10.862Z,102252.25
2022-12-24T04:54:16.005Z,102228.75
2022-12-24T04:59:22.304Z,102252.50
2022-12-24T05:04:26.965Z,102221.91
2022-12-24T05:09:32.114Z,102227.81
2022-12-24T05:14:36.813Z,102245.94
2022-12-24T05:19:41.854Z,102205.91
2022-12-24T05:25:06.240Z,102195.38
2022-12-24T05:30:11.875Z,102186.66
2022-12-24T05:35:17.126Z,102189.25
2022-12-24T05:40:22.347Z,102181.38
2022-12-24T05:45:29.563Z,102177.03
2022-12-24T05:50:34.356Z,102170.06
2022-12-24T05:55:44.059Z,102158.69
2022-12-24T06:00:49.455Z,102176.78
2022-12-24T06:06:04.614Z,102182.72
2022-12-24T06:11:17.199Z,102145.44
2022-12-24T06:16:24.155Z,102151.38
2022-12-24T06:21:29.666Z,102136.66
2022-12-24T06:26:35.889Z,102137.41
2022-12-24T06:31:41.303Z,102138.19
2022-12-24T06:36:47.641Z,102179.78
2022-12-24T06:41:53.483Z,102145.19
2022-12-24T06:47:01.149Z,102183.41
2022-12-24T06:52:06.996Z,102156.69
2022-12-24T06:57:12.403Z,102133.44
2022-12-24T07:02:19.719Z,102165.69
2022-12-24T07:07:25.067Z,102136.38
2022-12-24T07:12:30.085Z,102147.88
2022-12-24T07:17:35.625Z,102146.41
2022-12-24T07:22:41.433Z,102191.75
2022-12-24T07:27:46.748Z,102179.88
2022-12-24T07:32:53.207Z,102135.06
2022-12-24T07:37:58.526Z,102155.94
2022-12-24T07:43:04.097Z,102188.09
2022-12-24T07:48:09.465Z,102141.50
2022-12-24T07:53:14.917Z,102144.28
2022-12-24T07:58:20.456Z,102139.31
2022-12-24T08:03:28.120Z,102143.81
2022-12-24T08:08:33.576Z,102154.31
2022-12-24T08:13:38.970Z,102154.53
2022-12-24T08:18:44.788Z,102161.69
2022-12-24T08:23:50.227Z,102161.84
2022-12-24T08:28:55.600Z,102150.94
2022-12-24T08:34:00.935Z,102191.59
2022-12-24T08:39:08.473Z,102165.84
2022-12-24T08:44:13.762Z,102166.06
2022-12-24T08:49:19.213Z,102160.28
2022-12-24T08:54:27.220Z,102172.50
2022-12-24T08:59:32.410Z,102175.41
2022-12-24T09:04:44.918Z,102174.72
2022-12-24T09:09:50.238Z,102174.88
2022-12-24T09:15:02.974Z,102212.19
2022-12-24T09:20:09.467Z,102229.59
2022-12-24T09:25:14.680Z,102189.19
2022-12-24T09:30:19.874Z,102191.06
2022-12-24T09:35:26.194Z,102192.16
2022-12-24T09:40:41.987Z,102190.59
2022-12-24T09:46:17.393Z,102194.09
2022-12-24T09:51:22.061Z,102186.47
2022-12-24T09:56:31.965Z,102190.03
2022-12-24T10:01:37.149Z,102192.72
2022-12-24T10:07:06.537Z,102180.78
2022-12-24T10:12:22.005Z,102197.31
2022-12-24T10:17:48.729Z,102187.06
2022-12-24T10:23:14.012Z,102190.63
2022-12-24T10:28:30.393Z,102190.75
2022-12-24T10:33:57.074Z,102187.41
2022-12-24T10:39:03.567Z,102272.69
2022-12-24T10:44:08.703Z,102200.47
2022-12-24T10:49:25.988Z,102209.16
2022-12-24T10:54:40.176Z,102239.34
2022-12-24T10:59:54.671Z,102225.59
2022-12-24T11:05:03.653Z,102239.44
2022-12-24T11:10:10.499Z,102263.50
2022-12-24T11:15:30.006Z,102209.38
2022-12-24T11:20:37.222Z,102212.84
2022-12-24T11:25:49.809Z,102226.63
2022-12-24T11:31:12.776Z,102215.44
2022-12-24T11:36:22.383Z,102221.41
2022-12-24T11:41:28.497Z,102255.75
2022-12-24T11:46:40.582Z,102210.09
2022-12-24T11:52:06.637Z,102213.38
2022-12-24T11:57:16.313Z,102209.81
2022-12-24T12:02:40.230Z,102208.03
2022-12-24T12:07:47.376Z,102252.13
2022-12-24T12:13:16.536Z,102207.59
2022-12-24T12:18:33.761Z,102268.97
2022-12-24T12:24:01.934Z,102208.22
2022-12-24T12:29:26.824Z,102223.88
2022-12-24T12:34:54.964Z,102214.53
2022-12-24T12:39:59.873Z,102213.81
2022-12-24T12:45:04.657Z,102201.88
2022-12-24T12:50:27.328Z,102198.53
2022-12-24T12:55:32.231Z,102196.03
2022-12-24T13:00:42.626Z,102204.66
2022-12-24T13:06:16.699Z,102202.16
2022-12-24T13:11:56.268Z,102215.03
2022-12-24T13:17:25.090Z,102191.88
2022-12-24T13:22:30.393Z,102194.56
2022-12-24T13:27:38.146Z,102208.31
2022-12-24T13:32:50.313Z,102212.66
2022-12-24T13:37:55.392Z,102208.41
2022-12-24T13:43:03.054Z,102198.13
2022-12-24T13:48:10.980Z,102218.72
2022-12-24T13:53:45.561Z,102227.31
2022-12-24T13:59:11.410Z,102235.06
2022-12-24T14:04:37.031Z,102243.63
2022-12-24T14:09:52.251Z,102244.47
2022-12-24T14:14:57.017Z,102254.75
2022-12-24T14:20:05.452Z,102271.03
2022-12-24T14:25:26.245Z,102265.91
2022-12-24T14:30:33.008Z,102270.19
2022-12-24T14:35:44.106Z,102280.47
2022-12-24T14:41:09.822Z,102317.31
2022-12-24T14:46:36.398Z,102285.63
2022-12-24T14:51:50.040Z,102294.19
2022-12-24T14:57:13.054Z,102294.16
2022-12-24T15:02:29.943Z,102299.31
2022-12-24T15:07:41.919Z,102306.16
2022-12-24T15:12:51.491Z,102307.00
2022-12-24T15:17:58.018Z,102295.00
2022-12-24T15:23:03.330Z,102329.22
2022-12-24T15:28:21.018Z,102286.41
2022-12-24T15:33:26.218Z,102290.69
2022-12-24T15:38:41.943Z,102287.28
2022-12-24T15:43:49.001Z,102288.16
2022-12-24T15:48:57.458Z,102293.31
2022-12-24T15:54:16.565Z,102291.59
2022-12-24T15:59:33.936Z,102284.75
2022-12-24T16:04:40.545Z,102320.72
2022-12-24T16:09:47.555Z,102285.59
2022-12-24T16:15:00.683Z,102283.88
2022-12-24T16:20:17.930Z,102294.13
2022-12-24T16:25:30.694Z,102292.41
2022-12-24T16:30:37.003Z,102346.28
2022-12-24T16:35:42.274Z,102338.56
2022-12-24T16:40:47.083Z,102287.22
2022-12-24T16:45:52.368Z,102288.94
2022-12-24T16:50:57.976Z,102300.88
2022-12-24T16:56:03.990Z,102288.03
2022-12-24T17:01:10.449Z,102288.88
2022-12-24T17:06:15.715Z,102299.16
2022-12-24T17:11:25.314Z,102293.19
2022-12-24T17:16:31.203Z,102301.75
2022-12-24T17:21:36.413Z,102348.78
2022-12-24T17:26:41.627Z,102294.03
2022-12-24T17:31:47.797Z,102296.56
2022-12-24T17:36:52.868Z,102341.88
2022-12-24T17:41:58.307Z,102303.34
2022-12-24T17:47:06.265Z,102297.38
2022-12-24T17:52:11.370Z,102313.56
2022-12-24T17:57:16.514Z,102305.84
2022-12-24T18:02:21.816Z,102305.81
2022-12-24T18:07:28.385Z,102296.38
2022-12-24T18:12:33.717Z,102315.09
2022-12-24T18:17:39.311Z,102316.03
2022-12-24T18:22:44.321Z,102315.22
2022-12-24T18:27:51.069Z,102318.69
2022-12-24T18:32:56.107Z,102288.78
2022-12-24T18:38:03.502Z,102294.81
2022-12-24T18:43:08.913Z,102313.66
2022-12-24T18:48:14.760Z,102289.72
2022-12-24T18:53:19.875Z,102296.56
2022-12-24T18:58:24.452Z,102274.34
2022-12-24T19:03:29.496Z,102280.34
2022-12-24T19:14:01.090Z,102267.56
2022-12-24T19:19:08.738Z,102274.41
2022-12-24T19:24:15.518Z,102287.28
2022-12-24T19:29:20.918Z,102258.19
2022-12-24T19:34:26.863Z,102259.06
2022-12-24T19:39:35.009Z,102258.22
2022-12-24T19:44:39.715Z,102252.22
2022-12-24T19:49:44.692Z,102247.06
2022-12-24T19:54:50.199Z,102249.63
2022-12-24T19:59:55.172Z,102259.06
2022-12-24T20:05:01.110Z,102249.63
2022-12-24T20:10:06.469Z,102250.50
2022-12-24T20:15:11.896Z,102245.38
2022-12-24T20:20:16.702Z,102250.50
2022-12-24T20:25:21.990Z,102253.06
2022-12-24T20:30:28.440Z,102247.06
2022-12-24T20:35:37.044Z,102241.94
2022-12-24T20:40:43.332Z,102246.22
2022-12-24T20:45:54.590Z,102239.34
2022-12-24T20:51:01.876Z,102234.22
2022-12-24T20:56:07.506Z,102233.38
2022-12-24T21:01:13.802Z,102223.09
2022-12-24T21:06:20.884Z,102245.31
2022-12-24T21:11:43.047Z,102231.63
2022-12-24T21:16:48.533Z,102203.38
2022-12-24T21:21:54.646Z,102207.63
2022-12-24T21:27:00.817Z,102208.50
2022-12-24T21:32:05.861Z,102219.63
2022-12-24T21:37:12.121Z,102230.75
2022-12-24T21:42:17.274Z,102224.75
2022-12-24T21:47:21.956Z,102246.94
2022-12-24T21:52:26.846Z,102267.47
2022-12-24T21:57:50.140Z,102282.00
2022-12-24T22:02:58.312Z,102293.13
2022-12-24T22:08:21.410Z,102303.41
2022-12-24T22:13:26.943Z,102323.94
2022-12-24T22:18:31.627Z,102336.72
2022-12-24T22:23:42.281Z,102314.50
2022-12-24T22:28:47.424Z,102327.31
2022-12-24T22:33:52.811Z,102339.22
2022-12-24T22:38:57.476Z,102339.22
2022-12-24T22:44:02.027Z,102337.44
2022-12-24T22:49:06.604Z,102360.47
2022-12-24T22:54:12.881Z,102351.91
2022-12-24T22:59:17.702Z,102357.00
2022-12-24T23:04:22.345Z,102357.81
2022-12-24T23:09:28.055Z,102373.25
2022-12-24T23:14:51.083Z,102357.91
2022-12-24T23:19:55.753Z,102352.81
2022-12-24T23:25:00.633Z,102352.03
2022-12-24T23:30:06.468Z,102363.97
2022-12-24T23:35:11.256Z,102340.94
2022-12-24T23:40:16.136Z,102331.53
2022-12-24T23:45:20.784Z,102389.66
2022-12-24T23:50:25.403Z,102346.88
2022-12-24T23:55:30.020Z,102340.88
